Terminal Aerodrome Forecast
Issued by NWS

Home | Current Version | Previous Version | Text Only | Print | Product List | Glossary On
Versions: 1 2 3 4 5 6 7 8 9 10 11 12 13 14 15
210
FTUS42 KTAE 301215 AAA
TAFABY
TAF AMD
KABY 301215Z 3012/0112 15012G17KT P6SM SCT015
      TEMPO 3012/3015 BKN015
     FM301500 17016G24KT P6SM BKN040
     FM010100 17008KT P6SM SCT040=

USA.gov is the U.S. government's official web portal to all federal, state and local government web resources and services.